KENW/ENW METAR and TAF weather

Enter ICAO airport designator
Station Type Date Time Source
KENW METAR 2021/09/25 12:53 UTC NOAA

KENW 251253Z 26007KT 10SM CLR 11/09 A2999 RMK AO2 SLP157 T01060089


Station Type Date Time Source
KENW Decoded METAR 2021/09/25 12:53 UTC NOAA

KENOSHA REGIONAL AIRPORT, WI, United States (KENW) 42-36N 087-56W 219M
Sep 25, 2021 - 08:53 AM EDT / 2021.09.25 1253 UTC
Wind: from the W (260 degrees) at 8 MPH (7 KT):0
Visibility: 10 mile(s):0
Sky conditions: clear
Temperature: 51.1 F (10.6 C)
Dew Point: 48.0 F (8.9 C)
Relative Humidity: 89%
Pressure (altimeter): 29.99 in. Hg (1015 hPa)
ob: KENW 251253Z 26007KT 10SM CLR 11/09 A2999 RMK AO2 SLP157 T01060089
cycle: 13

Station Type Date Time Source
KENW TAF 2021/09/25 12:30 UTC NOAA

TAF KENW 251128Z 2512/2612 26007KT P6SM SKC
FM251600 27011KT P6SM FEW250
FM251800 28014G26KT P6SM FEW250
FM252300 26010G19KT P6SM SCT250
FM260200 24006KT P6SM FEW180

Example: see airport list